Time;durP1;ratioP1;P1;durP2;ratioP2;P2;SDS_P1;SDS_P2;PMS_P1;PMS_P2;Temp;Humidity;BMP_temperature;BMP_pressure;BME280_temperature;BME280_humidity;BME280_pressure;Samples;Min_cycle;Max_cycle;Signal;HPM_P1;HPM_P2
2023/05/25 00:00:52;;;;;;;7.20;3.47;;;14.80;96.40;;;;;;4985777;28;20252;-35
2023/05/25 00:03:29;;;;;;;7.22;3.50;;;14.80;96.40;;;;;;5003127;28;20231;-35
2023/05/25 00:06:00;;;;;;;8.68;3.97;;;14.80;96.40;;;;;;4991975;28;20763;-34
2023/05/25 00:08:28;;;;;;;9.07;3.80;;;14.70;96.40;;;;;;4985530;28;20297;-35
2023/05/25 00:10:58;;;;;;;8.65;3.63;;;14.70;96.40;;;;;;4987029;28;20214;-35
2023/05/25 00:13:30;;;;;;;6.82;3.72;;;14.70;96.40;;;;;;4986961;28;20222;-34
2023/05/25 00:16:00;;;;;;;8.77;3.58;;;14.60;96.50;;;;;;4955372;28;20205;-35
2023/05/25 00:18:36;;;;;;;12.38;3.95;;;14.60;96.50;;;;;;4985936;28;20627;-34
2023/05/25 00:21:06;;;;;;;7.18;3.50;;;14.50;96.50;;;;;;4987427;28;20220;-35
2023/05/25 00:23:34;;;;;;;9.68;4.40;;;14.50;96.40;;;;;;4989913;28;20264;-35
2023/05/25 00:26:06;;;;;;;12.75;4.15;;;14.50;96.80;;;;;;4989043;28;20222;-34
2023/05/25 00:28:35;;;;;;;9.10;3.80;;;14.40;96.50;;;;;;4984903;28;20209;-35
2023/05/25 00:31:02;;;;;;;8.30;3.85;;;14.40;96.60;;;;;;4985517;28;20218;-35
2023/05/25 00:33:30;;;;;;;8.02;4.05;;;14.40;96.60;;;;;;4987254;28;20292;-35
2023/05/25 00:35:57;;;;;;;9.98;4.40;;;14.30;96.60;;;;;;4985101;28;20269;-35
2023/05/25 00:38:27;;;;;;;7.68;3.97;;;14.30;96.60;;;;;;4985307;28;20257;-35
2023/05/25 00:40:59;;;;;;;7.72;4.18;;;14.30;96.60;;;;;;4984374;28;20206;-35
2023/05/25 00:43:26;;;;;;;11.18;4.60;;;14.30;96.80;;;;;;4985068;28;21004;-35
2023/05/25 00:45:56;;;;;;;10.35;4.45;;;14.30;97.00;;;;;;4986337;28;20206;-35
2023/05/25 00:48:28;;;;;;;9.63;4.22;;;14.30;96.80;;;;;;5001577;28;20217;-34
2023/05/25 00:51:00;;;;;;;7.47;4.10;;;14.20;96.70;;;;;;5005680;28;20219;-35
2023/05/25 00:53:28;;;;;;;8.77;4.38;;;14.20;96.70;;;;;;4969375;28;20298;-35
2023/05/25 00:56:03;;;;;;;9.55;4.57;;;14.20;96.70;;;;;;5003155;28;20213;-35
2023/05/25 00:58:37;;;;;;;10.93;4.32;;;14.20;96.90;;;;;;4989523;28;20233;-35
2023/05/25 01:01:10;;;;;;;9.30;4.25;;;14.20;97.00;;;;;;4987510;28;20213;-35
2023/05/25 01:03:44;;;;;;;9.80;4.30;;;14.20;96.90;;;;;;4988403;28;20723;-35
2023/05/25 01:06:16;;;;;;;10.85;4.38;;;14.10;96.90;;;;;;4999042;28;20217;-35
2023/05/25 01:08:51;;;;;;;10.70;4.22;;;14.10;96.90;;;;;;4976107;28;20224;-34
2023/05/25 01:11:23;;;;;;;8.45;4.40;;;14.10;96.90;;;;;;4994402;28;20213;-35
2023/05/25 01:13:53;;;;;;;7.18;4.40;;;14.10;96.90;;;;;;5005489;28;20582;-35
2023/05/25 01:16:24;;;;;;;11.13;3.95;;;14.10;96.80;;;;;;4991434;28;20214;-35
2023/05/25 01:18:59;;;;;;;11.75;5.10;;;14.00;96.80;;;;;;5004171;28;20945;-35
2023/05/25 01:21:32;;;;;;;10.30;4.18;;;14.00;96.80;;;;;;5003208;28;20248;-35
2023/05/25 01:24:07;;;;;;;9.32;4.80;;;14.00;96.90;;;;;;4998448;28;20209;-35
2023/05/25 01:26:43;;;;;;;8.82;4.53;;;13.90;96.90;;;;;;5002481;28;20240;-35
2023/05/25 01:29:20;;;;;;;13.38;4.57;;;13.90;97.00;;;;;;4987353;28;20785;-35
2023/05/25 01:31:51;;;;;;;8.93;4.30;;;13.80;96.90;;;;;;4983009;28;20650;-35
2023/05/25 01:34:22;;;;;;;8.23;4.30;;;13.80;97.00;;;;;;4983543;28;20244;-35
2023/05/25 01:36:53;;;;;;;9.77;4.88;;;13.70;96.90;;;;;;5003466;28;20201;-35
2023/05/25 01:39:22;;;;;;;9.20;4.30;;;13.70;96.90;;;;;;4991102;28;20624;-35
2023/05/25 01:41:52;;;;;;;8.20;3.93;;;13.70;97.10;;;;;;4985485;28;20312;-35
2023/05/25 01:44:25;;;;;;;9.40;4.43;;;13.60;97.00;;;;;;5005162;28;20244;-35
2023/05/25 01:47:30;;;;;;;7.93;4.35;;;13.60;97.00;;;;;;5002908;28;20221;-35
2023/05/25 01:50:11;;;;;;;9.52;4.47;;;13.60;97.10;;;;;;4976234;28;20376;-35
2023/05/25 01:52:46;;;;;;;8.13;4.18;;;13.60;97.30;;;;;;4995917;28;20664;-35
2023/05/25 01:55:21;;;;;;;12.20;4.40;;;13.50;97.10;;;;;;4986020;28;20241;-35
2023/05/25 01:57:57;;;;;;;12.23;4.80;;;13.50;97.20;;;;;;4983443;28;20252;-35
2023/05/25 02:00:30;;;;;;;8.52;4.18;;;13.50;97.20;;;;;;5002742;28;20213;-35
2023/05/25 02:03:00;;;;;;;9.05;4.32;;;13.50;97.40;;;;;;5003110;28;20201;-35
2023/05/25 02:05:27;;;;;;;9.40;4.77;;;13.50;97.30;;;;;;5002788;28;20205;-35
2023/05/25 02:07:54;;;;;;;8.63;4.57;;;13.50;97.10;;;;;;4992119;28;20688;-35
2023/05/25 02:10:22;;;;;;;10.03;4.70;;;13.50;97.10;;;;;;4981881;28;20230;-35
2023/05/25 02:12:51;;;;;;;9.03;4.43;;;13.50;97.20;;;;;;4990481;28;20255;-35
2023/05/25 02:15:20;;;;;;;7.77;4.27;;;13.40;97.20;;;;;;4989221;28;20214;-35
2023/05/25 02:17:47;;;;;;;9.10;4.67;;;13.40;97.20;;;;;;4985009;28;20935;-35
2023/05/25 02:20:19;;;;;;;9.13;4.27;;;13.40;97.20;;;;;;4984436;28;20208;-35
2023/05/25 02:22:48;;;;;;;8.97;4.83;;;13.40;97.20;;;;;;4983374;28;20485;-35
2023/05/25 02:25:16;;;;;;;9.00;4.20;;;13.30;97.20;;;;;;4983805;28;20599;-34
2023/05/25 02:27:46;;;;;;;8.53;4.43;;;13.30;97.10;;;;;;4984012;28;20968;-34
2023/05/25 02:30:15;;;;;;;9.53;5.20;;;13.20;97.20;;;;;;4984802;28;20237;-34
2023/05/25 02:32:45;;;;;;;9.87;4.60;;;13.30;97.30;;;;;;5000599;28;20572;-40
2023/05/25 02:35:12;;;;;;;11.33;5.40;;;13.30;97.30;;;;;;5003779;28;20209;-34
2023/05/25 02:37:44;;;;;;;8.63;5.23;;;13.20;97.50;;;;;;5004070;28;20213;-35
2023/05/25 02:40:16;;;;;;;9.48;4.68;;;13.20;97.30;;;;;;4986583;28;20213;-35
2023/05/25 02:42:46;;;;;;;10.20;4.83;;;13.20;97.50;;;;;;4989638;28;20635;-35
2023/05/25 02:45:18;;;;;;;7.87;4.50;;;13.20;97.40;;;;;;5004003;28;20206;-35
2023/05/25 02:47:47;;;;;;;11.37;5.00;;;13.20;97.50;;;;;;5000916;28;20222;-35
2023/05/25 02:50:14;;;;;;;13.33;5.23;;;13.20;97.60;;;;;;4992001;28;20218;-35
2023/05/25 02:52:42;;;;;;;11.60;5.23;;;13.10;97.50;;;;;;4998174;28;20221;-34
2023/05/25 02:55:17;;;;;;;9.83;4.40;;;13.10;97.60;;;;;;5003023;28;20201;-35
2023/05/25 02:57:44;;;;;;;9.30;4.73;;;13.10;97.70;;;;;;5002235;28;20260;-35
2023/05/25 03:00:18;;;;;;;11.30;4.87;;;13.00;97.60;;;;;;5003637;28;20288;-35
2023/05/25 03:02:45;;;;;;;11.80;5.63;;;13.10;97.60;;;;;;4990518;28;20636;-35
2023/05/25 03:05:16;;;;;;;9.90;4.53;;;13.10;97.60;;;;;;4984353;28;20220;-35
2023/05/25 03:07:46;;;;;;;8.90;4.77;;;13.00;97.60;;;;;;4984218;28;20202;-34
2023/05/25 03:10:18;;;;;;;9.97;4.90;;;13.00;97.60;;;;;;4976355;28;20727;-34
2023/05/25 03:12:45;;;;;;;11.53;4.67;;;13.00;97.60;;;;;;4996745;28;20205;-35
2023/05/25 03:15:15;;;;;;;11.50;4.77;;;12.90;97.60;;;;;;4983991;28;20202;-34
2023/05/25 03:17:46;;;;;;;11.80;5.13;;;12.90;97.60;;;;;;4991729;28;20216;-35
2023/05/25 03:20:14;;;;;;;10.00;4.80;;;12.90;97.60;;;;;;4985569;28;20603;-34
2023/05/25 03:22:44;;;;;;;11.03;4.87;;;12.90;97.60;;;;;;4995531;28;20644;-34
2023/05/25 03:25:14;;;;;;;11.50;4.90;;;12.80;97.60;;;;;;4969925;28;20822;-34
2023/05/25 03:27:41;;;;;;;10.82;5.07;;;12.80;97.70;;;;;;4988193;28;20201;-34
2023/05/25 03:30:11;;;;;;;12.23;5.27;;;12.80;97.60;;;;;;4986426;28;20280;-35
2023/05/25 03:32:38;;;;;;;9.77;4.77;;;12.80;97.70;;;;;;4971406;28;20475;-35
2023/05/25 03:35:05;;;;;;;8.47;4.80;;;12.80;97.70;;;;;;4986132;28;20550;-35
2023/05/25 03:37:35;;;;;;;8.33;4.83;;;12.70;97.80;;;;;;4987827;28;20225;-34
2023/05/25 03:40:03;;;;;;;10.20;5.37;;;12.80;97.80;;;;;;4986828;28;20210;-34
2023/05/25 03:42:33;;;;;;;11.43;4.80;;;12.80;98.10;;;;;;4986915;28;20474;-34
2023/05/25 03:45:01;;;;;;;9.80;4.83;;;12.80;97.90;;;;;;4987786;28;20714;-34
2023/05/25 03:47:30;;;;;;;11.23;5.00;;;12.80;97.90;;;;;;4969360;28;20688;-34
2023/05/25 03:49:57;;;;;;;10.43;5.40;;;12.70;97.70;;;;;;4987293;28;20222;-35
2023/05/25 03:52:30;;;;;;;10.73;5.10;;;12.80;97.80;;;;;;4996118;28;20619;-34
2023/05/25 03:54:57;;;;;;;9.67;4.60;;;12.70;98.10;;;;;;5006248;28;20267;-34
2023/05/25 03:57:24;;;;;;;9.37;4.57;;;12.70;98.00;;;;;;4990336;28;20806;-34
2023/05/25 03:59:51;;;;;;;10.23;5.00;;;12.70;97.90;;;;;;4985992;28;20209;-35
2023/05/25 04:02:21;;;;;;;9.07;4.87;;;12.70;98.00;;;;;;4986280;28;20213;-35
2023/05/25 04:04:54;;;;;;;11.27;5.70;;;12.70;98.10;;;;;;4969732;28;20567;-35
2023/05/25 04:07:22;;;;;;;11.27;4.90;;;12.70;98.10;;;;;;4987173;28;20313;-34
2023/05/25 04:09:54;;;;;;;11.73;5.10;;;12.70;98.10;;;;;;4986796;28;20222;-34
2023/05/25 04:12:21;;;;;;;9.03;4.90;;;12.70;98.50;;;;;;4985612;28;20218;-34
2023/05/25 04:14:51;;;;;;;8.07;4.90;;;12.70;98.10;;;;;;5001152;28;20207;-34
2023/05/25 04:17:20;;;;;;;10.63;5.03;;;12.70;98.20;;;;;;4988519;28;20213;-34
2023/05/25 04:19:48;;;;;;;11.27;5.20;;;12.70;98.20;;;;;;4989809;28;20575;-34
2023/05/25 04:22:17;;;;;;;9.20;4.73;;;12.70;98.20;;;;;;5005122;28;20213;-35
2023/05/25 04:24:45;;;;;;;10.03;4.47;;;12.70;98.30;;;;;;4989972;28;20214;-34
2023/05/25 04:27:15;;;;;;;11.27;5.60;;;12.70;98.30;;;;;;4984627;28;20441;-34
2023/05/25 04:29:45;;;;;;;10.17;5.10;;;12.70;98.20;;;;;;4987522;28;20544;-34
2023/05/25 04:32:16;;;;;;;7.77;5.20;;;12.70;98.30;;;;;;5005853;28;20575;-34
2023/05/25 04:34:47;;;;;;;9.03;5.00;;;12.80;98.30;;;;;;4986845;28;20206;-34
2023/05/25 04:37:14;;;;;;;12.03;5.40;;;12.80;98.40;;;;;;4984210;28;20211;-34
2023/05/25 04:39:44;;;;;;;10.93;5.37;;;12.80;98.60;;;;;;4988372;28;20210;-34
2023/05/25 04:42:14;;;;;;;12.73;5.23;;;12.80;98.50;;;;;;4984438;28;20684;-34
2023/05/25 04:44:46;;;;;;;11.77;5.50;;;12.80;98.50;;;;;;4986795;28;20670;-34
2023/05/25 04:47:16;;;;;;;12.67;5.80;;;12.80;98.50;;;;;;4992621;28;20209;-34
2023/05/25 04:49:45;;;;;;;12.60;5.93;;;12.80;98.50;;;;;;5002948;28;20221;-35
2023/05/25 04:52:14;;;;;;;12.43;5.40;;;12.90;98.80;;;;;;4984182;28;20704;-34
2023/05/25 04:54:47;;;;;;;11.60;6.00;;;12.90;99.00;;;;;;4993034;28;20209;-34
2023/05/25 04:57:16;;;;;;;13.10;5.83;;;12.90;98.80;;;;;;5003518;28;20245;-34
2023/05/25 04:59:46;;;;;;;11.63;5.73;;;12.90;98.90;;;;;;4992625;28;20198;-34
2023/05/25 05:02:13;;;;;;;10.93;5.40;;;12.90;99.10;;;;;;4989732;28;20218;-34
2023/05/25 05:04:43;;;;;;;10.97;5.23;;;12.90;99.00;;;;;;4984343;28;20218;-34
2023/05/25 05:07:10;;;;;;;11.23;6.00;;;12.90;98.90;;;;;;5002185;28;20202;-34
2023/05/25 05:09:37;;;;;;;12.77;5.57;;;12.90;98.90;;;;;;4988273;28;20210;-34
2023/05/25 05:12:06;;;;;;;13.47;6.00;;;12.90;99.10;;;;;;4987221;28;20194;-34
2023/05/25 05:14:35;;;;;;;13.53;6.10;;;13.00;99.00;;;;;;4995967;28;20228;-34
2023/05/25 05:17:03;;;;;;;12.27;5.60;;;13.00;99.00;;;;;;4991816;28;20210;-35
2023/05/25 05:19:31;;;;;;;11.93;5.73;;;13.00;99.00;;;;;;4992172;28;20201;-34
2023/05/25 05:21:59;;;;;;;13.13;5.93;;;13.00;98.90;;;;;;5002067;28;20225;-35
2023/05/25 05:24:29;;;;;;;13.97;6.10;;;13.10;99.10;;;;;;5000132;28;20691;-35
2023/05/25 05:26:56;;;;;;;14.40;5.80;;;13.10;99.10;;;;;;5011045;28;20292;-35
2023/05/25 05:29:26;;;;;;;12.93;5.97;;;13.20;99.10;;;;;;5002692;28;20225;-35
2023/05/25 05:31:55;;;;;;;13.03;6.00;;;13.20;99.00;;;;;;4983638;28;20357;-35
2023/05/25 05:34:25;;;;;;;13.67;5.63;;;13.20;99.10;;;;;;4993052;28;20279;-35
2023/05/25 05:36:55;;;;;;;11.87;5.70;;;13.20;99.20;;;;;;4990661;28;20216;-35
2023/05/25 05:39:30;;;;;;;11.20;5.90;;;13.20;99.30;;;;;;4991984;28;20264;-35
2023/05/25 05:41:58;;;;;;;10.50;6.20;;;13.20;99.50;;;;;;4983375;28;20616;-35
2023/05/25 05:44:27;;;;;;;11.03;5.43;;;13.20;99.40;;;;;;4999770;28;20355;-35
2023/05/25 05:46:59;;;;;;;11.90;5.40;;;13.30;99.30;;;;;;4993601;28;20276;-35
2023/05/25 05:49:28;;;;;;;9.87;5.80;;;13.30;99.30;;;;;;5002761;28;20268;-35
2023/05/25 05:51:56;;;;;;;11.83;6.17;;;13.40;99.40;;;;;;5001351;28;20345;-35
2023/05/25 05:54:23;;;;;;;8.93;5.73;;;13.50;99.40;;;;;;5002726;28;20213;-35
2023/05/25 05:56:50;;;;;;;12.67;5.73;;;13.50;99.70;;;;;;4996451;28;20241;-35
2023/05/25 05:59:21;;;;;;;11.43;5.70;;;13.50;99.50;;;;;;4986902;28;20212;-35
2023/05/25 06:01:50;;;;;;;12.43;5.63;;;13.50;99.80;;;;;;4984501;28;20212;-35
2023/05/25 06:04:24;;;;;;;13.47;5.60;;;13.60;99.90;;;;;;4984622;28;20206;-35
2023/05/25 06:06:56;;;;;;;15.53;5.70;;;13.60;99.80;;;;;;4986422;28;20267;-35
2023/05/25 06:09:28;;;;;;;13.77;6.00;;;13.70;99.70;;;;;;4997384;28;20220;-35
2023/05/25 06:11:55;;;;;;;20.08;5.78;;;13.70;99.90;;;;;;4984146;28;20644;-35
2023/05/25 06:14:22;;;;;;;11.20;5.80;;;13.80;99.90;;;;;;4993432;28;20574;-35
2023/05/25 06:16:57;;;;;;;13.10;5.17;;;13.80;99.90;;;;;;4982546;28;20627;-35
2023/05/25 06:19:27;;;;;;;15.30;6.27;;;13.90;99.90;;;;;;4990277;28;20285;-35
2023/05/25 06:21:54;;;;;;;12.03;5.40;;;13.90;99.90;;;;;;4988487;28;20684;-36
2023/05/25 06:24:24;;;;;;;11.67;5.90;;;13.90;99.80;;;;;;5002980;28;20216;-35
2023/05/25 06:26:54;;;;;;;9.83;5.60;;;14.00;99.90;;;;;;4993942;28;20587;-35
2023/05/25 06:29:23;;;;;;;12.27;5.50;;;14.00;99.90;;;;;;4985834;28;21317;-35
2023/05/25 06:31:53;;;;;;;10.73;5.00;;;14.10;99.80;;;;;;4986526;28;20344;-35
2023/05/25 06:34:22;;;;;;;9.73;4.50;;;14.20;99.90;;;;;;4987903;28;20681;-35
2023/05/25 06:36:52;;;;;;;15.40;5.20;;;14.20;99.90;;;;;;4985247;28;20202;-35
2023/05/25 06:39:24;;;;;;;10.83;5.33;;;14.20;99.90;;;;;;4984777;28;20214;-35
2023/05/25 06:41:52;;;;;;;13.10;5.60;;;14.30;99.90;;;;;;4988269;28;20215;-35
2023/05/25 06:44:20;;;;;;;13.73;5.20;;;14.30;99.90;;;;;;4990958;28;20571;-35
2023/05/25 06:46:47;;;;;;;11.23;5.78;;;14.30;99.90;;;;;;4989260;28;20753;-35
2023/05/25 06:49:16;;;;;;;14.27;5.30;;;14.40;99.90;;;;;;4978645;28;20273;-35
2023/05/25 06:51:49;;;;;;;15.95;5.78;;;14.50;99.90;;;;;;4991496;28;20225;-35
2023/05/25 06:54:18;;;;;;;16.65;5.80;;;14.50;99.90;;;;;;5004232;28;20577;-35
2023/05/25 06:56:50;;;;;;;16.50;6.37;;;14.60;99.90;;;;;;4983299;28;20241;-35
2023/05/25 06:59:19;;;;;;;18.00;6.00;;;14.60;99.90;;;;;;4985266;28;20212;-35
2023/05/25 07:01:47;;;;;;;15.32;6.18;;;14.70;99.90;;;;;;4984910;28;20218;-35
2023/05/25 07:04:21;;;;;;;45.25;9.52;;;14.70;99.90;;;;;;4990142;28;20250;-35
2023/05/25 07:06:53;;;;;;;21.55;7.35;;;14.70;99.90;;;;;;4985029;28;20229;-35
2023/05/25 07:09:21;;;;;;;81.30;17.83;;;14.70;99.90;;;;;;4982955;28;20220;-35
2023/05/25 07:11:48;;;;;;;21.17;6.85;;;14.70;99.90;;;;;;4983643;28;20910;-35
2023/05/25 07:14:20;;;;;;;19.55;6.57;;;14.80;99.90;;;;;;4985280;28;20288;-35
2023/05/25 07:16:55;;;;;;;14.50;6.03;;;14.80;99.90;;;;;;4990062;28;20698;-35
2023/05/25 07:19:22;;;;;;;11.80;5.50;;;14.80;99.90;;;;;;4969459;28;20209;-35
2023/05/25 07:21:51;;;;;;;12.63;5.53;;;14.80;99.90;;;;;;4984125;28;20212;-35
2023/05/25 07:24:20;;;;;;;14.90;5.40;;;14.90;99.90;;;;;;4982577;28;20256;-35
2023/05/25 07:26:48;;;;;;;16.85;5.63;;;14.90;99.90;;;;;;5001848;28;20662;-36
2023/05/25 07:29:15;;;;;;;14.35;6.00;;;15.00;99.90;;;;;;5002587;28;20748;-35
2023/05/25 07:31:43;;;;;;;15.15;5.35;;;15.00;99.90;;;;;;4998581;28;20591;-35
2023/05/25 07:34:10;;;;;;;12.15;5.68;;;15.10;99.90;;;;;;5001313;28;20224;-35
2023/05/25 07:36:40;;;;;;;14.57;5.22;;;15.20;99.90;;;;;;4976434;28;20271;-36
2023/05/25 07:39:07;;;;;;;10.60;5.45;;;15.20;99.90;;;;;;4987316;28;20312;-35
2023/05/25 07:41:35;;;;;;;9.57;4.88;;;15.30;99.90;;;;;;4993753;28;20300;-35
2023/05/25 07:44:04;;;;;;;12.68;5.50;;;15.30;99.90;;;;;;4999736;28;20770;-35
2023/05/25 07:46:31;;;;;;;9.63;4.72;;;15.40;99.90;;;;;;4971722;28;20207;-35
2023/05/25 07:49:05;;;;;;;13.50;5.70;;;15.40;99.90;;;;;;4980907;28;20206;-35
2023/05/25 07:51:37;;;;;;;20.67;5.72;;;15.40;99.90;;;;;;4984314;28;20388;-35
2023/05/25 07:54:06;;;;;;;18.65;5.47;;;15.50;99.90;;;;;;4985738;28;20206;-35
2023/05/25 07:56:37;;;;;;;26.65;6.05;;;15.50;99.90;;;;;;4989851;28;20229;-35
2023/05/25 07:59:07;;;;;;;14.73;5.37;;;15.60;99.90;;;;;;4981176;28;20201;-35
2023/05/25 08:01:34;;;;;;;11.98;5.78;;;15.70;99.90;;;;;;4986947;28;20226;-35
2023/05/25 08:04:02;;;;;;;15.48;5.75;;;15.80;99.90;;;;;;4987770;28;20213;-35
2023/05/25 08:06:31;;;;;;;22.10;6.25;;;15.90;99.90;;;;;;4983799;28;20326;-35
2023/05/25 08:08:59;;;;;;;11.88;5.75;;;15.90;99.90;;;;;;4999280;28;20317;-35
2023/05/25 08:11:30;;;;;;;11.82;5.13;;;16.00;99.90;;;;;;4987488;28;20228;-35
2023/05/25 08:13:59;;;;;;;12.07;6.00;;;16.00;99.90;;;;;;4989982;28;20210;-35
2023/05/25 08:16:31;;;;;;;14.65;6.30;;;16.10;99.90;;;;;;4993554;28;20344;-35
2023/05/25 08:19:01;;;;;;;13.38;5.82;;;16.10;99.90;;;;;;4984843;28;20624;-35
2023/05/25 08:21:33;;;;;;;9.93;5.25;;;16.20;99.90;;;;;;4989909;28;20206;-35
2023/05/25 08:24:07;;;;;;;13.35;5.78;;;16.30;99.90;;;;;;4998310;28;20284;-35
2023/05/25 08:26:42;;;;;;;14.57;5.35;;;16.30;99.90;;;;;;4984918;28;20233;-35
2023/05/25 08:29:22;;;;;;;11.35;5.63;;;16.40;99.90;;;;;;4985604;28;20218;-35
2023/05/25 08:31:50;;;;;;;14.30;6.57;;;16.50;99.90;;;;;;4992555;28;20634;-35
2023/05/25 08:34:19;;;;;;;10.48;4.90;;;16.50;99.90;;;;;;5006940;28;20201;-35
2023/05/25 08:36:49;;;;;;;12.50;6.20;;;16.60;99.90;;;;;;4996434;28;20210;-35
2023/05/25 08:39:17;;;;;;;11.32;5.20;;;16.70;99.90;;;;;;4987310;28;20304;-35
2023/05/25 08:41:45;;;;;;;11.50;6.32;;;16.80;99.90;;;;;;4987432;28;20261;-35
2023/05/25 08:44:19;;;;;;;12.77;6.55;;;16.90;99.90;;;;;;4990410;28;20206;-35
2023/05/25 08:46:53;;;;;;;12.27;5.80;;;16.90;99.90;;;;;;4994302;28;20220;-35
2023/05/25 08:49:23;;;;;;;16.58;6.93;;;16.90;99.90;;;;;;4997952;28;20570;-35
2023/05/25 08:51:57;;;;;;;12.50;6.03;;;17.00;99.90;;;;;;4974371;28;20648;-35
2023/05/25 08:54:28;;;;;;;14.95;6.80;;;17.10;99.90;;;;;;4984849;28;20230;-35
2023/05/25 08:57:06;;;;;;;17.67;6.80;;;17.20;99.90;;;;;;4983776;28;20234;-35
2023/05/25 09:00:05;;;;;;;14.80;7.05;;;17.30;99.90;;;;;;4987808;28;20267;-35
2023/05/25 09:02:43;;;;;;;16.20;7.25;;;17.40;99.90;;;;;;4989765;28;20222;-38
2023/05/25 09:05:14;;;;;;;13.07;6.65;;;17.40;99.90;;;;;;4998021;28;20645;-35
2023/05/25 09:07:43;;;;;;;14.02;6.60;;;17.40;99.90;;;;;;4989952;28;20202;-35
2023/05/25 09:10:18;;;;;;;28.52;8.80;;;17.50;99.90;;;;;;4996977;28;20497;-35
2023/05/25 09:12:50;;;;;;;35.13;9.55;;;17.60;99.90;;;;;;4985530;28;20244;-35
2023/05/25 09:15:22;;;;;;;14.55;6.60;;;17.60;99.90;;;;;;4984210;28;20206;-35
2023/05/25 09:17:50;;;;;;;26.77;7.53;;;17.60;99.90;;;;;;4984054;28;20208;-35
2023/05/25 09:20:22;;;;;;;29.23;7.05;;;17.60;99.90;;;;;;4974972;28;20387;-35
2023/05/25 09:22:52;;;;;;;14.10;6.07;;;17.80;99.90;;;;;;4991099;28;20628;-35
2023/05/25 09:25:19;;;;;;;14.40;5.70;;;17.80;99.90;;;;;;4993092;28;20209;-35
2023/05/25 09:27:48;;;;;;;15.23;5.10;;;17.80;99.90;;;;;;4995224;28;20615;-35
2023/05/25 09:30:15;;;;;;;9.88;4.50;;;17.80;99.90;;;;;;4987921;28;20232;-35
2023/05/25 09:32:45;;;;;;;19.75;5.85;;;17.80;99.90;;;;;;4986144;28;20215;-35
2023/05/25 09:35:15;;;;;;;24.83;6.47;;;17.80;99.90;;;;;;5003848;28;20668;-35
2023/05/25 09:37:47;;;;;;;14.55;6.38;;;17.80;99.90;;;;;;4995991;28;20739;-35
2023/05/25 09:40:16;;;;;;;23.80;6.90;;;17.80;99.90;;;;;;4983881;28;20213;-35
2023/05/25 09:42:46;;;;;;;13.65;5.38;;;17.80;99.90;;;;;;4979724;28;20210;-35
2023/05/25 09:45:13;;;;;;;18.33;5.65;;;17.80;99.90;;;;;;4981684;28;20229;-35
2023/05/25 09:47:40;;;;;;;15.05;4.82;;;17.80;99.90;;;;;;4982636;28;20232;-35
2023/05/25 09:50:10;;;;;;;15.10;4.97;;;17.80;99.90;;;;;;4981696;28;20214;-35
2023/05/25 09:52:40;;;;;;;9.57;4.40;;;17.90;99.90;;;;;;4985040;28;20308;-35
2023/05/25 09:55:09;;;;;;;27.20;6.43;;;18.00;99.90;;;;;;4971406;28;20229;-35
2023/05/25 09:57:41;;;;;;;11.93;4.80;;;18.00;99.90;;;;;;4980591;28;20233;-35
2023/05/25 10:00:13;;;;;;;12.73;4.03;;;18.00;99.90;;;;;;4970833;28;22018;-35
2023/05/25 10:02:45;;;;;;;10.10;3.83;;;18.00;99.90;;;;;;4978724;28;20214;-35
2023/05/25 10:05:15;;;;;;;9.52;3.30;;;18.10;99.90;;;;;;4959294;28;20226;-34
2023/05/25 10:07:45;;;;;;;6.70;3.30;;;18.20;99.90;;;;;;4984902;28;20271;-35
2023/05/25 10:10:16;;;;;;;10.38;3.97;;;18.30;99.90;;;;;;4986560;28;20251;-35
2023/05/25 10:12:44;;;;;;;9.60;3.70;;;18.40;99.90;;;;;;4989417;28;20981;-35
2023/05/25 10:15:16;;;;;;;8.70;3.08;;;18.50;99.90;;;;;;4984942;28;20259;-35
2023/05/25 10:17:51;;;;;;;9.02;3.55;;;18.60;99.90;;;;;;4985989;28;20554;-35
2023/05/25 10:20:20;;;;;;;10.63;3.88;;;18.60;99.90;;;;;;4986593;28;20225;-35
2023/05/25 10:22:56;;;;;;;7.43;3.53;;;18.60;99.90;;;;;;4982687;28;20216;-35
2023/05/25 10:25:38;;;;;;;8.82;4.82;;;18.70;99.90;;;;;;4989299;28;20687;-35
2023/05/25 10:28:27;;;;;;;8.95;3.97;;;18.60;99.90;;;;;;4983919;28;20206;-35
2023/05/25 10:30:57;;;;;;;10.57;4.30;;;18.70;99.90;;;;;;4992654;28;20212;-35
2023/05/25 10:33:27;;;;;;;9.20;4.30;;;18.70;99.90;;;;;;4990856;28;20213;-35
2023/05/25 10:35:59;;;;;;;9.90;4.35;;;18.70;99.90;;;;;;4973789;28;20229;-35
2023/05/25 10:38:40;;;;;;;7.53;3.90;;;18.70;99.90;;;;;;4968591;28;20738;-35
2023/05/25 10:41:10;;;;;;;8.93;4.10;;;18.70;99.90;;;;;;4991336;28;20213;-35
2023/05/25 10:43:41;;;;;;;7.80;4.25;;;18.80;99.90;;;;;;4993014;28;20280;-36
2023/05/25 10:46:11;;;;;;;6.80;3.75;;;18.80;99.90;;;;;;4991111;28;20957;-35
2023/05/25 10:48:44;;;;;;;9.40;4.07;;;18.80;99.90;;;;;;4986471;28;20591;-35
2023/05/25 10:51:13;;;;;;;8.40;4.10;;;18.70;99.90;;;;;;4993401;28;20684;-35
2023/05/25 10:54:00;;;;;;;6.18;3.67;;;18.70;99.50;;;;;;4989521;28;20222;-35
2023/05/25 10:56:29;;;;;;;6.38;3.40;;;18.60;99.20;;;;;;4984603;28;20202;-35
2023/05/25 10:59:01;;;;;;;6.88;3.00;;;18.60;99.90;;;;;;4982222;28;20325;-35
2023/05/25 11:01:32;;;;;;;6.75;2.78;;;18.70;99.90;;;;;;4985589;28;20198;-35
2023/05/25 11:04:09;;;;;;;6.18;2.40;;;18.80;99.90;;;;;;4985630;28;20703;-35
2023/05/25 11:06:39;;;;;;;6.88;3.22;;;18.80;99.90;;;;;;4974637;28;20778;-35
2023/05/25 11:09:07;;;;;;;16.17;5.22;;;18.90;99.90;;;;;;4982276;28;20211;-35
2023/05/25 11:11:44;;;;;;;14.68;4.05;;;19.10;99.90;;;;;;4983100;28;20727;-35
2023/05/25 11:14:22;;;;;;;15.50;4.53;;;19.20;99.80;;;;;;4980216;28;20316;-35
2023/05/25 11:17:13;;;;;;;11.02;3.80;;;19.20;99.90;;;;;;4979369;28;20226;-35
2023/05/25 11:19:43;;;;;;;12.63;3.92;;;19.30;99.90;;;;;;4983077;28;20210;-35
2023/05/25 11:22:21;;;;;;;15.68;4.78;;;19.30;99.80;;;;;;4985345;28;20882;-35
2023/05/25 11:24:52;;;;;;;12.23;3.08;;;19.30;99.70;;;;;;4979972;28;20568;-35
2023/05/25 11:27:23;;;;;;;6.18;2.67;;;19.30;99.90;;;;;;4988133;28;20284;-35
2023/05/25 11:29:57;;;;;;;8.43;2.72;;;19.30;99.70;;;;;;4976810;28;20799;-35
2023/05/25 11:32:28;;;;;;;9.23;4.00;;;19.40;99.90;;;;;;4992581;28;20316;-35
2023/05/25 11:34:56;;;;;;;25.90;7.45;;;19.50;99.90;;;;;;4989376;28;20216;-35
2023/05/25 11:37:29;;;;;;;20.52;6.03;;;19.60;99.90;;;;;;5000553;28;20214;-35
2023/05/25 11:40:00;;;;;;;10.63;4.30;;;19.60;99.80;;;;;;4992657;28;20205;-36
2023/05/25 11:42:29;;;;;;;8.10;4.40;;;19.50;99.50;;;;;;5000452;28;20205;-35
2023/05/25 11:45:02;;;;;;;7.20;4.10;;;19.50;99.60;;;;;;4991266;28;20788;-35
2023/05/25 11:47:31;;;;;;;4.95;3.45;;;19.50;99.30;;;;;;5004639;28;20213;-35
2023/05/25 11:50:01;;;;;;;7.85;3.67;;;19.50;99.60;;;;;;4997045;28;20205;-35
2023/05/25 11:52:31;;;;;;;7.43;3.63;;;19.50;99.30;;;;;;4964215;28;20305;-35
2023/05/25 11:55:08;;;;;;;26.08;7.40;;;19.50;99.50;;;;;;4988814;28;20209;-35
2023/05/25 11:57:37;;;;;;;15.32;4.20;;;19.50;99.40;;;;;;4999545;28;20245;-35
2023/05/25 12:00:10;;;;;;;9.80;4.47;;;19.50;99.10;;;;;;4998642;28;20396;-35
2023/05/25 12:02:38;;;;;;;10.55;4.45;;;19.50;99.20;;;;;;5004749;28;20213;-35
2023/05/25 12:05:10;;;;;;;7.55;4.32;;;19.60;99.70;;;;;;4990931;28;20236;-35
2023/05/25 12:07:46;;;;;;;11.93;4.70;;;19.60;99.30;;;;;;4995575;28;20582;-35
2023/05/25 12:10:16;;;;;;;26.73;6.80;;;19.60;99.50;;;;;;4984150;28;20443;-35
2023/05/25 12:12:51;;;;;;;11.35;4.93;;;19.60;99.60;;;;;;5001679;28;20264;-35
2023/05/25 12:15:29;;;;;;;11.30;4.68;;;19.60;99.30;;;;;;4994421;28;20198;-35
2023/05/25 12:17:58;;;;;;;8.13;4.32;;;19.70;99.60;;;;;;4988674;28;20639;-35
2023/05/25 12:20:28;;;;;;;7.57;4.32;;;19.70;99.80;;;;;;4978522;28;20658;-35
2023/05/25 12:22:57;;;;;;;9.82;4.30;;;19.80;99.70;;;;;;4987656;28;20218;-35
2023/05/25 12:25:24;;;;;;;19.67;7.10;;;19.80;99.70;;;;;;4981543;28;20213;-35
2023/05/25 12:28:12;;;;;;;30.80;8.00;;;19.80;99.60;;;;;;4985390;28;20206;-35
2023/05/25 12:30:39;;;;;;;11.57;4.43;;;19.90;99.40;;;;;;4983616;28;20213;-35
2023/05/25 12:33:09;;;;;;;7.85;3.90;;;19.90;99.80;;;;;;4988464;28;20225;-35
2023/05/25 12:35:46;;;;;;;9.55;4.13;;;19.90;99.60;;;;;;4981637;28;20606;-35
2023/05/25 12:38:17;;;;;;;8.70;4.25;;;19.90;99.10;;;;;;4979516;28;20319;-35
2023/05/25 12:41:03;;;;;;;20.27;5.22;;;20.00;99.40;;;;;;4981240;28;20210;-35
2023/05/25 12:43:41;;;;;;;7.57;4.10;;;20.00;99.20;;;;;;4989424;28;20260;-35
2023/05/25 12:46:08;;;;;;;9.38;4.10;;;20.00;99.20;;;;;;4985316;28;20220;-34
2023/05/25 12:48:38;;;;;;;8.13;3.30;;;20.00;99.30;;;;;;4984783;28;20315;-34
2023/05/25 12:51:09;;;;;;;8.65;3.88;;;20.00;99.50;;;;;;4988495;28;20702;-34
2023/05/25 12:54:08;;;;;;;11.27;4.07;;;20.10;99.50;;;;;;4987819;28;20719;-34
2023/05/25 12:56:58;;;;;;;24.25;5.50;;;20.20;99.50;;;;;;4990057;28;20246;-34
2023/05/25 12:59:25;;;;;;;8.98;4.35;;;20.20;99.70;;;;;;4988569;28;20312;-34